sensor_id;sensor_type;location;lat;lon;timestamp;temperature;humidity
63094;DHT22;49183;51.380;0.098;2022-08-19T00:01:46;17.50;90.20
63094;DHT22;49183;51.380;0.098;2022-08-19T00:04:48;17.50;90.20
63094;DHT22;49183;51.380;0.098;2022-08-19T00:07:50;17.50;90.20
63094;DHT22;49183;51.380;0.098;2022-08-19T00:10:51;17.50;90.20
63094;DHT22;49183;51.380;0.098;2022-08-19T00:13:55;17.50;90.10
63094;DHT22;49183;51.380;0.098;2022-08-19T00:16:56;17.50;90.10
63094;DHT22;49183;51.380;0.098;2022-08-19T00:19:57;17.50;90.10
63094;DHT22;49183;51.380;0.098;2022-08-19T00:22:58;17.50;90.20
63094;DHT22;49183;51.380;0.098;2022-08-19T00:25:59;17.40;90.30
63094;DHT22;49183;51.380;0.098;2022-08-19T00:29:00;17.40;90.40
63094;DHT22;49183;51.380;0.098;2022-08-19T00:32:01;17.30;90.40
63094;DHT22;49183;51.380;0.098;2022-08-19T00:35:05;17.30;90.70
63094;DHT22;49183;51.380;0.098;2022-08-19T00:38:06;17.30;90.90
63094;DHT22;49183;51.380;0.098;2022-08-19T00:41:25;17.10;90.70
63094;DHT22;49183;51.380;0.098;2022-08-19T00:44:28;16.90;90.50
63094;DHT22;49183;51.380;0.098;2022-08-19T00:47:29;16.60;89.90
63094;DHT22;49183;51.380;0.098;2022-08-19T00:50:30;16.40;89.40
63094;DHT22;49183;51.380;0.098;2022-08-19T00:53:38;16.30;89.20
63094;DHT22;49183;51.380;0.098;2022-08-19T00:56:40;16.10;89.00
63094;DHT22;49183;51.380;0.098;2022-08-19T00:59:45;15.90;88.80
63094;DHT22;49183;51.380;0.098;2022-08-19T01:02:49;15.80;88.70
63094;DHT22;49183;51.380;0.098;2022-08-19T01:05:52;15.70;88.60
63094;DHT22;49183;51.380;0.098;2022-08-19T01:08:54;15.60;88.60
63094;DHT22;49183;51.380;0.098;2022-08-19T01:11:56;15.50;88.40
63094;DHT22;49183;51.380;0.098;2022-08-19T01:14:57;15.40;88.10
63094;DHT22;49183;51.380;0.098;2022-08-19T01:18:06;15.30;87.60
63094;DHT22;49183;51.380;0.098;2022-08-19T01:24:20;15.20;86.90
63094;DHT22;49183;51.380;0.098;2022-08-19T01:27:40;15.20;86.50
63094;DHT22;49183;51.380;0.098;2022-08-19T01:30:41;15.10;86.20
63094;DHT22;49183;51.380;0.098;2022-08-19T01:33:42;15.00;86.00
63094;DHT22;49183;51.380;0.098;2022-08-19T01:36:45;15.00;85.90
63094;DHT22;49183;51.380;0.098;2022-08-19T01:39:47;14.90;85.70
63094;DHT22;49183;51.380;0.098;2022-08-19T01:42:53;14.90;85.60
63094;DHT22;49183;51.380;0.098;2022-08-19T01:45:54;14.80;85.70
63094;DHT22;49183;51.380;0.098;2022-08-19T01:48:55;14.70;85.70
63094;DHT22;49183;51.380;0.098;2022-08-19T01:51:56;14.60;85.80
63094;DHT22;49183;51.380;0.098;2022-08-19T01:54:57;14.60;85.90
63094;DHT22;49183;51.380;0.098;2022-08-19T01:58:00;14.60;86.10
63094;DHT22;49183;51.380;0.098;2022-08-19T02:01:04;14.60;86.20
63094;DHT22;49183;51.380;0.098;2022-08-19T02:04:06;14.60;86.30
63094;DHT22;49183;51.380;0.098;2022-08-19T02:07:08;14.60;86.30
63094;DHT22;49183;51.380;0.098;2022-08-19T02:10:13;14.70;86.40
63094;DHT22;49183;51.380;0.098;2022-08-19T02:13:15;14.70;86.40
63094;DHT22;49183;51.380;0.098;2022-08-19T02:16:17;14.70;86.40
63094;DHT22;49183;51.380;0.098;2022-08-19T02:19:19;14.70;86.40
63094;DHT22;49183;51.380;0.098;2022-08-19T02:22:20;14.70;86.40
63094;DHT22;49183;51.380;0.098;2022-08-19T02:25:21;14.60;86.40
63094;DHT22;49183;51.380;0.098;2022-08-19T02:28:22;14.70;86.40
63094;DHT22;49183;51.380;0.098;2022-08-19T02:31:24;14.60;86.30
63094;DHT22;49183;51.380;0.098;2022-08-19T02:34:26;14.60;86.40
63094;DHT22;49183;51.380;0.098;2022-08-19T02:37:27;14.70;86.30
63094;DHT22;49183;51.380;0.098;2022-08-19T02:41:02;14.60;86.30
63094;DHT22;49183;51.380;0.098;2022-08-19T02:44:04;14.60;86.40
63094;DHT22;49183;51.380;0.098;2022-08-19T02:47:18;14.60;86.50
63094;DHT22;49183;51.380;0.098;2022-08-19T02:50:19;14.60;86.40
63094;DHT22;49183;51.380;0.098;2022-08-19T02:53:21;14.60;86.20
63094;DHT22;49183;51.380;0.098;2022-08-19T02:56:23;14.50;86.10
63094;DHT22;49183;51.380;0.098;2022-08-19T02:59:24;14.50;85.90
63094;DHT22;49183;51.380;0.098;2022-08-19T03:02:19;14.40;85.90
63094;DHT22;49183;51.380;0.098;2022-08-19T03:05:13;14.30;86.00
63094;DHT22;49183;51.380;0.098;2022-08-19T03:08:35;14.20;86.10
63094;DHT22;49183;51.380;0.098;2022-08-19T03:11:37;13.90;86.30
63094;DHT22;49183;51.380;0.098;2022-08-19T03:14:39;13.80;86.60
63094;DHT22;49183;51.380;0.098;2022-08-19T03:17:40;13.60;86.70
63094;DHT22;49183;51.380;0.098;2022-08-19T03:20:49;13.50;87.00
63094;DHT22;49183;51.380;0.098;2022-08-19T03:23:53;13.30;87.10
63094;DHT22;49183;51.380;0.098;2022-08-19T03:26:55;13.20;87.30
63094;DHT22;49183;51.380;0.098;2022-08-19T03:29:56;13.10;87.40
63094;DHT22;49183;51.380;0.098;2022-08-19T03:32:57;13.00;87.50
63094;DHT22;49183;51.380;0.098;2022-08-19T03:36:14;12.90;87.60
63094;DHT22;49183;51.380;0.098;2022-08-19T03:39:16;12.80;87.70
63094;DHT22;49183;51.380;0.098;2022-08-19T03:42:18;12.60;87.70
63094;DHT22;49183;51.380;0.098;2022-08-19T03:45:35;12.40;87.90
63094;DHT22;49183;51.380;0.098;2022-08-19T03:48:37;12.30;88.10
63094;DHT22;49183;51.380;0.098;2022-08-19T03:51:38;12.20;88.30
63094;DHT22;49183;51.380;0.098;2022-08-19T03:54:39;12.10;88.50
63094;DHT22;49183;51.380;0.098;2022-08-19T03:57:40;11.90;88.60
63094;DHT22;49183;51.380;0.098;2022-08-19T04:00:45;11.80;88.80
63094;DHT22;49183;51.380;0.098;2022-08-19T04:03:47;11.70;89.00
63094;DHT22;49183;51.380;0.098;2022-08-19T04:06:49;11.70;89.10
63094;DHT22;49183;51.380;0.098;2022-08-19T04:09:51;11.60;89.20
63094;DHT22;49183;51.380;0.098;2022-08-19T04:12:56;11.50;89.30
63094;DHT22;49183;51.380;0.098;2022-08-19T04:15:57;11.50;89.50
63094;DHT22;49183;51.380;0.098;2022-08-19T04:19:01;11.50;89.40
63094;DHT22;49183;51.380;0.098;2022-08-19T04:22:03;11.50;89.30
63094;DHT22;49183;51.380;0.098;2022-08-19T04:25:05;11.50;89.30
63094;DHT22;49183;51.380;0.098;2022-08-19T04:28:07;11.40;89.20
63094;DHT22;49183;51.380;0.098;2022-08-19T04:31:14;11.40;89.20
63094;DHT22;49183;51.380;0.098;2022-08-19T04:34:18;11.30;89.20
63094;DHT22;49183;51.380;0.098;2022-08-19T04:37:20;11.30;89.20
63094;DHT22;49183;51.380;0.098;2022-08-19T04:40:21;11.30;89.20
63094;DHT22;49183;51.380;0.098;2022-08-19T04:43:41;11.30;89.10
63094;DHT22;49183;51.380;0.098;2022-08-19T04:46:44;11.30;89.10
63094;DHT22;49183;51.380;0.098;2022-08-19T04:49:45;11.20;89.10
63094;DHT22;49183;51.380;0.098;2022-08-19T04:52:46;11.20;89.20
63094;DHT22;49183;51.380;0.098;2022-08-19T04:55:47;11.20;89.30
63094;DHT22;49183;51.380;0.098;2022-08-19T04:58:49;11.10;89.30
63094;DHT22;49183;51.380;0.098;2022-08-19T05:01:50;11.00;89.30
63094;DHT22;49183;51.380;0.098;2022-08-19T05:04:57;11.00;89.40
63094;DHT22;49183;51.380;0.098;2022-08-19T05:07:58;10.90;89.50
63094;DHT22;49183;51.380;0.098;2022-08-19T05:11:06;10.90;89.60
63094;DHT22;49183;51.380;0.098;2022-08-19T05:14:12;10.90;89.60
63094;DHT22;49183;51.380;0.098;2022-08-19T05:17:14;10.80;89.60
63094;DHT22;49183;51.380;0.098;2022-08-19T05:20:20;10.80;89.80
63094;DHT22;49183;51.380;0.098;2022-08-19T05:23:39;10.80;90.00
63094;DHT22;49183;51.380;0.098;2022-08-19T05:26:43;10.80;90.20
63094;DHT22;49183;51.380;0.098;2022-08-19T05:29:44;10.80;90.20
63094;DHT22;49183;51.380;0.098;2022-08-19T05:32:45;10.90;90.30
63094;DHT22;49183;51.380;0.098;2022-08-19T05:35:46;11.10;90.40
63094;DHT22;49183;51.380;0.098;2022-08-19T05:38:47;11.20;90.40
63094;DHT22;49183;51.380;0.098;2022-08-19T05:41:55;11.30;90.30
63094;DHT22;49183;51.380;0.098;2022-08-19T05:44:57;11.40;90.20
63094;DHT22;49183;51.380;0.098;2022-08-19T05:47:59;11.50;90.30
63094;DHT22;49183;51.380;0.098;2022-08-19T05:51:07;11.70;90.30
63094;DHT22;49183;51.380;0.098;2022-08-19T05:54:13;11.90;90.20
63094;DHT22;49183;51.380;0.098;2022-08-19T05:57:14;12.10;90.10
63094;DHT22;49183;51.380;0.098;2022-08-19T06:00:15;12.30;89.80
63094;DHT22;49183;51.380;0.098;2022-08-19T06:03:16;12.30;89.40
63094;DHT22;49183;51.380;0.098;2022-08-19T06:06:18;12.40;89.20
63094;DHT22;49183;51.380;0.098;2022-08-19T06:09:20;12.40;89.20
63094;DHT22;49183;51.380;0.098;2022-08-19T06:12:22;12.50;89.20
63094;DHT22;49183;51.380;0.098;2022-08-19T06:15:25;12.70;89.00
63094;DHT22;49183;51.380;0.098;2022-08-19T06:18:26;12.90;88.40
63094;DHT22;49183;51.380;0.098;2022-08-19T06:21:36;13.00;87.80
63094;DHT22;49183;51.380;0.098;2022-08-19T06:24:38;13.10;87.10
63094;DHT22;49183;51.380;0.098;2022-08-19T06:27:39;13.30;86.70
63094;DHT22;49183;51.380;0.098;2022-08-19T06:31:06;13.50;86.00
63094;DHT22;49183;51.380;0.098;2022-08-19T06:34:07;13.70;85.60
63094;DHT22;49183;51.380;0.098;2022-08-19T06:37:08;13.90;85.00
63094;DHT22;49183;51.380;0.098;2022-08-19T06:40:10;14.10;84.90
63094;DHT22;49183;51.380;0.098;2022-08-19T06:43:11;14.40;84.10
63094;DHT22;49183;51.380;0.098;2022-08-19T06:46:16;14.60;83.40
63094;DHT22;49183;51.380;0.098;2022-08-19T06:49:22;14.80;82.60
63094;DHT22;49183;51.380;0.098;2022-08-19T06:52:24;15.00;81.70
63094;DHT22;49183;51.380;0.098;2022-08-19T06:55:25;15.10;81.50
63094;DHT22;49183;51.380;0.098;2022-08-19T06:58:26;15.30;80.70
63094;DHT22;49183;51.380;0.098;2022-08-19T07:01:27;15.50;80.50
63094;DHT22;49183;51.380;0.098;2022-08-19T07:04:30;15.60;80.10
63094;DHT22;49183;51.380;0.098;2022-08-19T07:07:32;15.80;79.70
63094;DHT22;49183;51.380;0.098;2022-08-19T07:10:33;16.00;79.00
63094;DHT22;49183;51.380;0.098;2022-08-19T07:13:34;16.10;78.50
63094;DHT22;49183;51.380;0.098;2022-08-19T07:16:40;16.20;77.70
63094;DHT22;49183;51.380;0.098;2022-08-19T07:19:41;16.30;77.50
63094;DHT22;49183;51.380;0.098;2022-08-19T07:22:43;16.50;76.90
63094;DHT22;49183;51.380;0.098;2022-08-19T07:25:44;16.70;76.40
63094;DHT22;49183;51.380;0.098;2022-08-19T07:28:47;16.80;76.20
63094;DHT22;49183;51.380;0.098;2022-08-19T07:31:50;17.00;75.90
63094;DHT22;49183;51.380;0.098;2022-08-19T07:34:57;17.20;74.40
63094;DHT22;49183;51.380;0.098;2022-08-19T07:37:59;17.30;73.50
63094;DHT22;49183;51.380;0.098;2022-08-19T07:41:00;17.30;73.30
63094;DHT22;49183;51.380;0.098;2022-08-19T07:44:01;17.30;73.20
63094;DHT22;49183;51.380;0.098;2022-08-19T07:47:03;17.50;73.20
63094;DHT22;49183;51.380;0.098;2022-08-19T07:50:24;17.70;72.20
63094;DHT22;49183;51.380;0.098;2022-08-19T07:53:25;17.80;71.70
63094;DHT22;49183;51.380;0.098;2022-08-19T07:56:29;17.80;70.50
63094;DHT22;49183;51.380;0.098;2022-08-19T07:59:30;17.80;69.60
63094;DHT22;49183;51.380;0.098;2022-08-19T08:02:31;17.80;69.30
63094;DHT22;49183;51.380;0.098;2022-08-19T08:05:33;17.90;69.80
63094;DHT22;49183;51.380;0.098;2022-08-19T08:08:52;18.00;68.80
63094;DHT22;49183;51.380;0.098;2022-08-19T08:12:12;18.10;68.30
63094;DHT22;49183;51.380;0.098;2022-08-19T08:15:21;18.30;68.70
63094;DHT22;49183;51.380;0.098;2022-08-19T08:18:28;18.30;67.90
63094;DHT22;49183;51.380;0.098;2022-08-19T08:21:39;18.50;67.80
63094;DHT22;49183;51.380;0.098;2022-08-19T08:24:40;18.50;65.80
63094;DHT22;49183;51.380;0.098;2022-08-19T08:27:43;18.50;65.80
63094;DHT22;49183;51.380;0.098;2022-08-19T08:30:47;18.70;66.00
63094;DHT22;49183;51.380;0.098;2022-08-19T08:33:55;18.80;63.40
63094;DHT22;49183;51.380;0.098;2022-08-19T08:36:56;18.80;64.00
63094;DHT22;49183;51.380;0.098;2022-08-19T08:39:58;18.90;63.60
63094;DHT22;49183;51.380;0.098;2022-08-19T08:46:15;19.10;63.10
63094;DHT22;49183;51.380;0.098;2022-08-19T08:52:36;19.70;62.90
63094;DHT22;49183;51.380;0.098;2022-08-19T08:55:37;20.00;60.80
63094;DHT22;49183;51.380;0.098;2022-08-19T08:59:05;20.20;59.60
63094;DHT22;49183;51.380;0.098;2022-08-19T09:02:08;20.10;58.30
63094;DHT22;49183;51.380;0.098;2022-08-19T09:05:10;20.00;57.60
63094;DHT22;49183;51.380;0.098;2022-08-19T09:09:04;19.80;57.70
63094;DHT22;49183;51.380;0.098;2022-08-19T09:15:39;19.20;58.80
63094;DHT22;49183;51.380;0.098;2022-08-19T09:18:51;19.30;58.20
63094;DHT22;49183;51.380;0.098;2022-08-19T09:21:54;19.60;58.00
63094;DHT22;49183;51.380;0.098;2022-08-19T09:24:56;19.50;56.50
63094;DHT22;49183;51.380;0.098;2022-08-19T09:27:58;19.30;57.50
63094;DHT22;49183;51.380;0.098;2022-08-19T09:31:12;19.70;58.60
63094;DHT22;49183;51.380;0.098;2022-08-19T09:34:13;19.90;57.30
63094;DHT22;49183;51.380;0.098;2022-08-19T09:37:14;19.80;56.90
63094;DHT22;49183;51.380;0.098;2022-08-19T09:40:17;19.30;56.20
63094;DHT22;49183;51.380;0.098;2022-08-19T09:43:24;19.00;57.50
63094;DHT22;49183;51.380;0.098;2022-08-19T09:46:34;19.10;58.70
63094;DHT22;49183;51.380;0.098;2022-08-19T09:49:34;19.20;58.40
63094;DHT22;49183;51.380;0.098;2022-08-19T09:52:35;19.10;58.20
63094;DHT22;49183;51.380;0.098;2022-08-19T09:55:43;19.20;58.30
63094;DHT22;49183;51.380;0.098;2022-08-19T09:58:44;19.20;57.40
63094;DHT22;49183;51.380;0.098;2022-08-19T10:01:45;19.30;57.40
63094;DHT22;49183;51.380;0.098;2022-08-19T10:04:56;19.40;57.50
63094;DHT22;49183;51.380;0.098;2022-08-19T10:08:22;19.60;56.40
63094;DHT22;49183;51.380;0.098;2022-08-19T10:11:23;19.80;56.30
63094;DHT22;49183;51.380;0.098;2022-08-19T10:14:26;19.80;55.50
63094;DHT22;49183;51.380;0.098;2022-08-19T10:17:28;19.80;55.50
63094;DHT22;49183;51.380;0.098;2022-08-19T10:20:40;19.80;54.30
63094;DHT22;49183;51.380;0.098;2022-08-19T10:23:44;19.80;55.10
63094;DHT22;49183;51.380;0.098;2022-08-19T10:26:45;19.80;54.70
63094;DHT22;49183;51.380;0.098;2022-08-19T10:29:46;19.80;55.20
63094;DHT22;49183;51.380;0.098;2022-08-19T10:32:47;19.70;56.20
63094;DHT22;49183;51.380;0.098;2022-08-19T10:36:17;19.70;56.80
63094;DHT22;49183;51.380;0.098;2022-08-19T10:39:20;19.80;57.30
63094;DHT22;49183;51.380;0.098;2022-08-19T10:42:29;19.80;56.40
63094;DHT22;49183;51.380;0.098;2022-08-19T10:45:30;20.00;56.50
63094;DHT22;49183;51.380;0.098;2022-08-19T10:48:39;20.30;54.70
63094;DHT22;49183;51.380;0.098;2022-08-19T10:51:40;20.30;53.70
63094;DHT22;49183;51.380;0.098;2022-08-19T10:55:07;20.30;53.90
63094;DHT22;49183;51.380;0.098;2022-08-19T10:58:26;20.30;54.20
63094;DHT22;49183;51.380;0.098;2022-08-19T11:01:27;20.70;54.50
63094;DHT22;49183;51.380;0.098;2022-08-19T11:04:29;21.10;53.50
63094;DHT22;49183;51.380;0.098;2022-08-19T11:07:32;21.40;53.30
63094;DHT22;49183;51.380;0.098;2022-08-19T11:10:33;21.60;53.00
63094;DHT22;49183;51.380;0.098;2022-08-19T11:13:38;21.50;52.50
63094;DHT22;49183;51.380;0.098;2022-08-19T11:16:41;21.40;51.90
63094;DHT22;49183;51.380;0.098;2022-08-19T11:19:42;21.20;52.10
63094;DHT22;49183;51.380;0.098;2022-08-19T11:22:43;21.00;52.90
63094;DHT22;49183;51.380;0.098;2022-08-19T11:25:45;20.90;53.90
63094;DHT22;49183;51.380;0.098;2022-08-19T11:28:49;21.00;53.80
63094;DHT22;49183;51.380;0.098;2022-08-19T11:31:50;21.20;53.90
63094;DHT22;49183;51.380;0.098;2022-08-19T11:34:51;21.10;53.30
63094;DHT22;49183;51.380;0.098;2022-08-19T11:37:45;21.10;52.70
63094;DHT22;49183;51.380;0.098;2022-08-19T11:41:00;21.30;51.50
63094;DHT22;49183;51.380;0.098;2022-08-19T11:44:02;21.40;51.20
63094;DHT22;49183;51.380;0.098;2022-08-19T11:47:04;21.40;50.90
63094;DHT22;49183;51.380;0.098;2022-08-19T11:50:05;21.30;49.00
63094;DHT22;49183;51.380;0.098;2022-08-19T11:53:06;21.30;48.50
63094;DHT22;49183;51.380;0.098;2022-08-19T11:56:08;21.30;49.30
63094;DHT22;49183;51.380;0.098;2022-08-19T11:59:10;21.40;49.00
63094;DHT22;49183;51.380;0.098;2022-08-19T12:02:10;21.60;47.90
63094;DHT22;49183;51.380;0.098;2022-08-19T12:05:11;21.60;47.20
63094;DHT22;49183;51.380;0.098;2022-08-19T12:08:13;21.50;47.40
63094;DHT22;49183;51.380;0.098;2022-08-19T12:11:15;21.50;47.70
63094;DHT22;49183;51.380;0.098;2022-08-19T12:14:20;21.60;47.90
63094;DHT22;49183;51.380;0.098;2022-08-19T12:17:24;21.70;47.50
63094;DHT22;49183;51.380;0.098;2022-08-19T12:20:25;21.80;47.10
63094;DHT22;49183;51.380;0.098;2022-08-19T12:23:26;21.80;47.20
63094;DHT22;49183;51.380;0.098;2022-08-19T12:26:28;21.90;46.60
63094;DHT22;49183;51.380;0.098;2022-08-19T12:29:39;21.80;46.40
63094;DHT22;49183;51.380;0.098;2022-08-19T12:32:40;21.60;47.00
63094;DHT22;49183;51.380;0.098;2022-08-19T12:35:43;21.50;47.90
63094;DHT22;49183;51.380;0.098;2022-08-19T12:38:45;21.50;48.30
63094;DHT22;49183;51.380;0.098;2022-08-19T12:41:45;21.30;47.50
63094;DHT22;49183;51.380;0.098;2022-08-19T12:44:46;21.10;47.70
63094;DHT22;49183;51.380;0.098;2022-08-19T12:47:47;21.00;48.10
63094;DHT22;49183;51.380;0.098;2022-08-19T12:51:11;20.90;48.70
63094;DHT22;49183;51.380;0.098;2022-08-19T12:54:15;21.00;48.70
63094;DHT22;49183;51.380;0.098;2022-08-19T12:57:16;21.10;49.10
63094;DHT22;49183;51.380;0.098;2022-08-19T13:00:21;21.00;48.90
63094;DHT22;49183;51.380;0.098;2022-08-19T13:03:22;21.00;49.20
63094;DHT22;49183;51.380;0.098;2022-08-19T13:06:26;20.90;49.40
63094;DHT22;49183;51.380;0.098;2022-08-19T13:09:27;20.90;49.40
63094;DHT22;49183;51.380;0.098;2022-08-19T13:12:28;20.80;49.90
63094;DHT22;49183;51.380;0.098;2022-08-19T13:15:33;20.90;50.70
63094;DHT22;49183;51.380;0.098;2022-08-19T13:18:34;21.30;50.80
63094;DHT22;49183;51.380;0.098;2022-08-19T13:21:36;21.80;50.00
63094;DHT22;49183;51.380;0.098;2022-08-19T13:24:32;22.30;49.30
63094;DHT22;49183;51.380;0.098;2022-08-19T13:27:34;22.50;46.10
63094;DHT22;49183;51.380;0.098;2022-08-19T13:30:35;22.40;44.00
63094;DHT22;49183;51.380;0.098;2022-08-19T13:33:55;22.30;43.20
63094;DHT22;49183;51.380;0.098;2022-08-19T13:36:59;22.30;43.50
63094;DHT22;49183;51.380;0.098;2022-08-19T13:40:00;22.60;43.50
63094;DHT22;49183;51.380;0.098;2022-08-19T13:43:03;22.80;43.20
63094;DHT22;49183;51.380;0.098;2022-08-19T13:46:11;22.90;42.60
63094;DHT22;49183;51.380;0.098;2022-08-19T13:49:13;22.80;41.40
63094;DHT22;49183;51.380;0.098;2022-08-19T13:52:13;22.60;41.80
63094;DHT22;49183;51.380;0.098;2022-08-19T13:55:17;22.70;42.80
63094;DHT22;49183;51.380;0.098;2022-08-19T13:58:17;23.00;42.00
63094;DHT22;49183;51.380;0.098;2022-08-19T14:01:21;23.20;40.30
63094;DHT22;49183;51.380;0.098;2022-08-19T14:04:22;23.00;40.20
63094;DHT22;49183;51.380;0.098;2022-08-19T14:07:23;22.70;40.80
63094;DHT22;49183;51.380;0.098;2022-08-19T14:10:26;22.50;41.80
63094;DHT22;49183;51.380;0.098;2022-08-19T14:13:27;22.30;42.10
63094;DHT22;49183;51.380;0.098;2022-08-19T14:16:28;22.30;42.80
63094;DHT22;49183;51.380;0.098;2022-08-19T14:19:29;22.20;42.60
63094;DHT22;49183;51.380;0.098;2022-08-19T14:22:38;22.10;42.00
63094;DHT22;49183;51.380;0.098;2022-08-19T14:25:39;21.90;42.00
63094;DHT22;49183;51.380;0.098;2022-08-19T14:28:41;21.80;42.50
63094;DHT22;49183;51.380;0.098;2022-08-19T14:31:43;21.80;43.40
63094;DHT22;49183;51.380;0.098;2022-08-19T14:34:44;22.10;43.40
63094;DHT22;49183;51.380;0.098;2022-08-19T14:37:45;22.60;42.90
63094;DHT22;49183;51.380;0.098;2022-08-19T14:40:49;22.80;41.80
63094;DHT22;49183;51.380;0.098;2022-08-19T14:43:52;22.80;41.00
63094;DHT22;49183;51.380;0.098;2022-08-19T14:46:54;22.80;41.60
63094;DHT22;49183;51.380;0.098;2022-08-19T14:49:55;22.80;41.30
63094;DHT22;49183;51.380;0.098;2022-08-19T14:53:07;22.60;41.90
63094;DHT22;49183;51.380;0.098;2022-08-19T14:56:12;22.50;42.30
63094;DHT22;49183;51.380;0.098;2022-08-19T14:59:14;22.60;42.70
63094;DHT22;49183;51.380;0.098;2022-08-19T15:02:16;22.80;41.40
63094;DHT22;49183;51.380;0.098;2022-08-19T15:05:21;23.00;41.80
63094;DHT22;49183;51.380;0.098;2022-08-19T15:08:23;23.20;41.00
63094;DHT22;49183;51.380;0.098;2022-08-19T15:11:25;23.10;40.40
63094;DHT22;49183;51.380;0.098;2022-08-19T15:14:27;22.80;41.20
63094;DHT22;49183;51.380;0.098;2022-08-19T15:17:28;22.70;41.60
63094;DHT22;49183;51.380;0.098;2022-08-19T15:20:32;22.70;41.70
63094;DHT22;49183;51.380;0.098;2022-08-19T15:23:35;22.80;42.10
63094;DHT22;49183;51.380;0.098;2022-08-19T15:26:43;22.90;41.60
63094;DHT22;49183;51.380;0.098;2022-08-19T15:29:44;23.00;42.10
63094;DHT22;49183;51.380;0.098;2022-08-19T15:32:48;22.90;42.10
63094;DHT22;49183;51.380;0.098;2022-08-19T15:35:50;22.90;42.20
63094;DHT22;49183;51.380;0.098;2022-08-19T15:38:50;22.80;42.50
63094;DHT22;49183;51.380;0.098;2022-08-19T15:41:51;22.80;42.30
63094;DHT22;49183;51.380;0.098;2022-08-19T15:44:53;22.40;43.10
63094;DHT22;49183;51.380;0.098;2022-08-19T15:47:55;22.10;43.90
63094;DHT22;49183;51.380;0.098;2022-08-19T15:50:55;21.80;44.80
63094;DHT22;49183;51.380;0.098;2022-08-19T15:53:58;21.70;45.30
63094;DHT22;49183;51.380;0.098;2022-08-19T15:56:59;21.60;45.40
63094;DHT22;49183;51.380;0.098;2022-08-19T16:00:16;21.60;46.00
63094;DHT22;49183;51.380;0.098;2022-08-19T16:03:38;22.10;45.40
63094;DHT22;49183;51.380;0.098;2022-08-19T16:07:02;22.60;45.00
63094;DHT22;49183;51.380;0.098;2022-08-19T16:10:10;22.60;43.20
63094;DHT22;49183;51.380;0.098;2022-08-19T16:13:15;22.30;43.60
63094;DHT22;49183;51.380;0.098;2022-08-19T16:16:21;22.10;43.80
63094;DHT22;49183;51.380;0.098;2022-08-19T16:19:22;22.10;44.60
63094;DHT22;49183;51.380;0.098;2022-08-19T16:22:29;22.30;44.90
63094;DHT22;49183;51.380;0.098;2022-08-19T16:25:30;22.70;44.10
63094;DHT22;49183;51.380;0.098;2022-08-19T16:28:31;22.60;43.60
63094;DHT22;49183;51.380;0.098;2022-08-19T16:31:35;22.30;43.80
63094;DHT22;49183;51.380;0.098;2022-08-19T16:34:39;22.00;44.20
63094;DHT22;49183;51.380;0.098;2022-08-19T16:37:40;21.70;45.00
63094;DHT22;49183;51.380;0.098;2022-08-19T16:40:41;21.50;45.50
63094;DHT22;49183;51.380;0.098;2022-08-19T16:43:47;21.40;45.70
63094;DHT22;49183;51.380;0.098;2022-08-19T16:46:49;21.30;46.30
63094;DHT22;49183;51.380;0.098;2022-08-19T16:49:52;21.10;46.50
63094;DHT22;49183;51.380;0.098;2022-08-19T16:52:47;20.80;46.90
63094;DHT22;49183;51.380;0.098;2022-08-19T16:55:51;20.70;46.70
63094;DHT22;49183;51.380;0.098;2022-08-19T16:58:52;20.70;47.20
63094;DHT22;49183;51.380;0.098;2022-08-19T17:01:53;20.80;47.50
63094;DHT22;49183;51.380;0.098;2022-08-19T17:04:55;21.00;47.50
63094;DHT22;49183;51.380;0.098;2022-08-19T17:07:56;21.30;47.10
63094;DHT22;49183;51.380;0.098;2022-08-19T17:10:58;21.70;46.90
63094;DHT22;49183;51.380;0.098;2022-08-19T17:14:05;22.00;46.20
63094;DHT22;49183;51.380;0.098;2022-08-19T17:17:05;22.00;45.70
63094;DHT22;49183;51.380;0.098;2022-08-19T17:20:07;21.80;45.30
63094;DHT22;49183;51.380;0.098;2022-08-19T17:23:09;21.40;46.10
63094;DHT22;49183;51.380;0.098;2022-08-19T17:26:30;21.10;46.80
63094;DHT22;49183;51.380;0.098;2022-08-19T17:29:32;20.70;47.50
63094;DHT22;49183;51.380;0.098;2022-08-19T17:32:33;20.40;48.30
63094;DHT22;49183;51.380;0.098;2022-08-19T17:35:34;20.30;48.90
63094;DHT22;49183;51.380;0.098;2022-08-19T17:38:37;20.60;48.90
63094;DHT22;49183;51.380;0.098;2022-08-19T17:41:38;20.90;48.30
63094;DHT22;49183;51.380;0.098;2022-08-19T17:44:39;21.30;47.10
63094;DHT22;49183;51.380;0.098;2022-08-19T17:47:40;21.50;46.00
63094;DHT22;49183;51.380;0.098;2022-08-19T17:50:41;21.50;45.30
63094;DHT22;49183;51.380;0.098;2022-08-19T17:53:42;21.60;45.50
63094;DHT22;49183;51.380;0.098;2022-08-19T17:56:43;21.80;45.50
63094;DHT22;49183;51.380;0.098;2022-08-19T17:59:46;22.00;45.40
63094;DHT22;49183;51.380;0.098;2022-08-19T18:02:56;21.80;45.40
63094;DHT22;49183;51.380;0.098;2022-08-19T18:05:58;21.50;46.10
63094;DHT22;49183;51.380;0.098;2022-08-19T18:08:59;21.60;46.40
63094;DHT22;49183;51.380;0.098;2022-08-19T18:12:00;21.80;46.40
63094;DHT22;49183;51.380;0.098;2022-08-19T18:15:05;22.30;45.40
63094;DHT22;49183;51.380;0.098;2022-08-19T18:18:07;22.40;44.60
63094;DHT22;49183;51.380;0.098;2022-08-19T18:21:09;22.50;44.10
63094;DHT22;49183;51.380;0.098;2022-08-19T18:24:10;22.50;44.20
63094;DHT22;49183;51.380;0.098;2022-08-19T18:27:11;22.60;43.90
63094;DHT22;49183;51.380;0.098;2022-08-19T18:30:12;22.50;43.90
63094;DHT22;49183;51.380;0.098;2022-08-19T18:33:15;22.40;44.00
63094;DHT22;49183;51.380;0.098;2022-08-19T18:36:16;22.30;44.10
63094;DHT22;49183;51.380;0.098;2022-08-19T18:39:37;22.00;44.40
63094;DHT22;49183;51.380;0.098;2022-08-19T18:42:58;21.80;44.90
63094;DHT22;49183;51.380;0.098;2022-08-19T18:46:17;21.40;45.30
63094;DHT22;49183;51.380;0.098;2022-08-19T18:49:37;21.10;46.10
63094;DHT22;49183;51.380;0.098;2022-08-19T18:52:38;20.80;46.90
63094;DHT22;49183;51.380;0.098;2022-08-19T18:55:40;20.40;47.80
63094;DHT22;49183;51.380;0.098;2022-08-19T18:58:45;20.00;48.80
63094;DHT22;49183;51.380;0.098;2022-08-19T19:01:46;19.60;49.80
63094;DHT22;49183;51.380;0.098;2022-08-19T19:04:47;19.20;50.90
63094;DHT22;49183;51.380;0.098;2022-08-19T19:07:53;18.80;51.80
63094;DHT22;49183;51.380;0.098;2022-08-19T19:10:55;18.50;52.60
63094;DHT22;49183;51.380;0.098;2022-08-19T19:14:00;18.20;53.50
63094;DHT22;49183;51.380;0.098;2022-08-19T19:17:14;17.90;54.40
63094;DHT22;49183;51.380;0.098;2022-08-19T19:20:20;17.60;55.50
63094;DHT22;49183;51.380;0.098;2022-08-19T19:23:24;17.40;56.10
63094;DHT22;49183;51.380;0.098;2022-08-19T19:26:25;17.20;56.60
63094;DHT22;49183;51.380;0.098;2022-08-19T19:29:26;17.00;57.20
63094;DHT22;49183;51.380;0.098;2022-08-19T19:32:29;16.80;57.70
63094;DHT22;49183;51.380;0.098;2022-08-19T19:35:31;16.60;58.40